Time;durP1;ratioP1;P1;durP2;ratioP2;P2;SDS_P1;SDS_P2;PMS_P1;PMS_P2;Temp;Humidity;BMP_temperature;BMP_pressure;BME280_temperature;BME280_humidity;BME280_pressure;Samples;Min_cycle;Max_cycle;Signal;HPM_P1;HPM_P2
2022/04/08 00:00:57;;;;;;;6.75;1.23;;;6.50;99.90;;;;;;5040449;28;20128;-69
2022/04/08 00:03:26;;;;;;;6.80;1.15;;;6.50;99.90;;;;;;5041259;28;20053;-69
2022/04/08 00:05:54;;;;;;;8.18;1.45;;;6.50;99.90;;;;;;5038655;28;20088;-69
2022/04/08 00:08:22;;;;;;;6.47;1.05;;;6.40;99.90;;;;;;5041436;28;20052;-69
2022/04/08 00:10:48;;;;;;;4.40;0.88;;;6.40;99.90;;;;;;5017380;28;20169;-69
2022/04/08 00:13:14;;;;;;;8.77;1.08;;;6.40;99.90;;;;;;5043603;28;20475;-69
2022/04/08 00:15:40;;;;;;;6.97;1.15;;;6.40;99.90;;;;;;5047220;28;20048;-69
2022/04/08 00:18:07;;;;;;;4.75;0.95;;;6.40;99.90;;;;;;5041827;28;20063;-69
2022/04/08 00:20:33;;;;;;;4.10;0.80;;;6.30;99.90;;;;;;5044770;28;20037;-69
2022/04/08 00:22:59;;;;;;;7.43;1.15;;;6.30;99.90;;;;;;5043392;28;20041;-69
2022/04/08 00:25:25;;;;;;;3.75;0.80;;;6.20;99.90;;;;;;5035551;28;20098;-69
2022/04/08 00:27:50;;;;;;;3.63;0.82;;;6.10;99.90;;;;;;5035617;28;20120;-69
2022/04/08 00:30:16;;;;;;;5.35;0.90;;;5.80;99.90;;;;;;5042957;28;20117;-69
2022/04/08 00:32:42;;;;;;;4.00;0.70;;;5.70;99.90;;;;;;5039604;28;20087;-69
2022/04/08 00:35:09;;;;;;;3.70;0.60;;;5.60;99.90;;;;;;5045540;28;20060;-69
2022/04/08 00:37:35;;;;;;;4.80;0.73;;;5.60;99.90;;;;;;5048165;28;20056;-70
2022/04/08 00:40:01;;;;;;;6.05;1.02;;;5.60;99.90;;;;;;5047043;28;20060;-69
2022/04/08 00:42:26;;;;;;;4.57;0.70;;;5.50;99.90;;;;;;5042593;28;20041;-69
2022/04/08 00:44:52;;;;;;;4.45;0.88;;;5.40;99.90;;;;;;5019114;28;20045;-69
2022/04/08 00:47:17;;;;;;;6.20;1.05;;;5.40;99.90;;;;;;5021039;28;20053;-69
2022/04/08 00:49:43;;;;;;;4.13;0.90;;;5.40;99.90;;;;;;5045414;28;20045;-69
2022/04/08 00:52:10;;;;;;;3.75;1.00;;;5.40;99.90;;;;;;5047335;28;20084;-69
2022/04/08 00:54:37;;;;;;;4.60;0.70;;;5.40;99.90;;;;;;5042119;28;20070;-69
2022/04/08 00:57:03;;;;;;;5.40;0.85;;;5.40;99.90;;;;;;5039839;28;20041;-69
2022/04/08 00:59:29;;;;;;;5.28;0.73;;;5.40;99.90;;;;;;5042081;28;20584;-69
2022/04/08 01:01:58;;;;;;;4.47;0.77;;;5.30;99.90;;;;;;5042912;28;20033;-69
2022/04/08 01:04:25;;;;;;;4.70;1.38;;;5.30;99.90;;;;;;5039933;28;20474;-69
2022/04/08 01:06:50;;;;;;;4.13;0.95;;;5.20;99.90;;;;;;5043647;28;20055;-69
2022/04/08 01:09:16;;;;;;;4.82;0.90;;;5.20;99.90;;;;;;5040144;28;20042;-69
2022/04/08 01:11:43;;;;;;;8.00;1.20;;;5.20;99.90;;;;;;5045489;28;20178;-69
2022/04/08 01:14:14;;;;;;;7.47;1.23;;;5.20;99.90;;;;;;5043874;28;20488;-69
2022/04/08 01:16:40;;;;;;;10.05;1.40;;;5.20;99.90;;;;;;5044153;28;20597;-70
2022/04/08 01:19:07;;;;;;;5.57;1.13;;;5.20;99.90;;;;;;5040244;28;20043;-69
2022/04/08 01:21:33;;;;;;;4.97;0.88;;;5.30;99.90;;;;;;5033388;28;20059;-67
2022/04/08 01:24:00;;;;;;;7.53;1.70;;;5.20;99.90;;;;;;5038016;28;20111;-67
2022/04/08 01:26:26;;;;;;;8.35;1.30;;;5.30;99.90;;;;;;5045465;28;20410;-67
2022/04/08 01:28:55;;;;;;;8.15;1.02;;;5.20;99.90;;;;;;5036201;28;20174;-69
2022/04/08 01:31:23;;;;;;;9.88;1.42;;;5.20;99.90;;;;;;5037714;28;20132;-69
2022/04/08 01:33:52;;;;;;;6.20;1.52;;;5.30;99.90;;;;;;5039635;28;20459;-69
2022/04/08 01:36:18;;;;;;;6.72;1.52;;;5.30;99.90;;;;;;5042542;28;20068;-68
2022/04/08 01:38:43;;;;;;;6.93;1.35;;;5.30;99.90;;;;;;5022226;28;20057;-68
2022/04/08 01:41:09;;;;;;;7.80;1.40;;;5.30;99.90;;;;;;5043518;28;20065;-68
2022/04/08 01:43:35;;;;;;;11.90;1.65;;;5.30;99.90;;;;;;5041071;28;20123;-68
2022/04/08 01:46:00;;;;;;;9.05;1.58;;;5.30;99.90;;;;;;5039752;28;20064;-69
2022/04/08 01:48:27;;;;;;;13.57;1.85;;;5.30;99.90;;;;;;5037548;28;20037;-68
2022/04/08 01:50:52;;;;;;;8.73;2.03;;;5.30;99.90;;;;;;5044076;28;20083;-68
2022/04/08 01:53:18;;;;;;;12.68;1.55;;;5.30;99.90;;;;;;5042038;28;20045;-69
2022/04/08 01:55:44;;;;;;;9.68;1.70;;;5.40;99.90;;;;;;5046795;28;20040;-68
2022/04/08 01:58:13;;;;;;;10.80;1.65;;;5.40;99.90;;;;;;5041757;28;20446;-68
2022/04/08 02:00:38;;;;;;;9.00;1.60;;;5.40;99.90;;;;;;5039933;28;20048;-68
2022/04/08 02:03:04;;;;;;;7.75;1.42;;;5.40;99.90;;;;;;5047424;28;20037;-68
2022/04/08 02:05:30;;;;;;;10.45;2.10;;;5.40;99.90;;;;;;5046350;28;20131;-68
2022/04/08 02:07:56;;;;;;;7.28;1.33;;;5.30;99.90;;;;;;5038746;28;20668;-68
2022/04/08 02:10:23;;;;;;;8.85;1.40;;;5.30;99.90;;;;;;5044000;28;20041;-68
2022/04/08 02:12:49;;;;;;;10.82;1.50;;;5.20;99.90;;;;;;5042249;28;20049;-68
2022/04/08 02:15:14;;;;;;;10.13;2.00;;;5.30;99.90;;;;;;5040943;28;20041;-69
2022/04/08 02:17:40;;;;;;;10.45;1.77;;;5.30;99.90;;;;;;5042947;28;20553;-68
2022/04/08 02:20:08;;;;;;;7.05;1.63;;;5.30;99.90;;;;;;5038418;28;20416;-68
2022/04/08 02:22:35;;;;;;;10.10;1.65;;;5.30;99.90;;;;;;5038310;28;20064;-68
2022/04/08 02:25:02;;;;;;;9.00;1.80;;;5.30;99.90;;;;;;5043317;28;20153;-68
2022/04/08 02:27:28;;;;;;;10.60;1.60;;;5.30;99.90;;;;;;5045052;28;20041;-68
2022/04/08 02:29:58;;;;;;;8.30;1.65;;;5.30;99.90;;;;;;5041548;28;20044;-68
2022/04/08 02:32:23;;;;;;;8.00;1.60;;;5.30;99.90;;;;;;5043102;28;20049;-68
2022/04/08 02:34:50;;;;;;;8.07;1.70;;;5.30;99.90;;;;;;5046802;28;20053;-69
2022/04/08 02:37:16;;;;;;;11.45;1.90;;;5.20;99.90;;;;;;5041887;28;20052;-68
2022/04/08 02:39:42;;;;;;;6.53;1.30;;;5.20;99.90;;;;;;5043911;28;20040;-68
2022/04/08 02:42:07;;;;;;;10.15;1.80;;;5.00;99.90;;;;;;5039169;28;20330;-68
2022/04/08 02:44:33;;;;;;;8.25;1.27;;;4.90;99.90;;;;;;5038391;28;20041;-68
2022/04/08 02:46:59;;;;;;;5.63;1.30;;;4.90;99.90;;;;;;5041104;28;20040;-68
2022/04/08 02:49:24;;;;;;;4.93;1.30;;;4.70;99.90;;;;;;5040796;28;20048;-68
2022/04/08 02:51:50;;;;;;;5.72;1.35;;;4.70;99.90;;;;;;5038121;28;20639;-68
2022/04/08 02:54:15;;;;;;;6.65;1.20;;;4.70;99.90;;;;;;5044447;28;20037;-68
2022/04/08 02:56:42;;;;;;;6.40;1.13;;;4.70;99.90;;;;;;5039558;28;20045;-68
2022/04/08 02:59:08;;;;;;;8.88;1.35;;;4.70;99.90;;;;;;5041917;28;20049;-69
2022/04/08 03:01:34;;;;;;;7.45;1.60;;;4.60;99.90;;;;;;5037485;28;20045;-68
2022/04/08 03:04:00;;;;;;;7.15;1.10;;;4.70;99.90;;;;;;5040392;28;20056;-68
2022/04/08 03:06:26;;;;;;;8.93;1.42;;;4.70;99.90;;;;;;5038712;28;20036;-68
2022/04/08 03:08:52;;;;;;;9.35;1.88;;;4.70;99.90;;;;;;5043351;28;20072;-68
2022/04/08 03:11:18;;;;;;;13.93;2.03;;;4.70;99.90;;;;;;5034549;28;20080;-68
2022/04/08 03:13:43;;;;;;;11.88;1.48;;;4.70;99.90;;;;;;5043229;28;20071;-68
2022/04/08 03:16:09;;;;;;;10.75;1.88;;;4.70;99.90;;;;;;5036728;28;20041;-69
2022/04/08 03:18:34;;;;;;;12.20;2.03;;;4.70;99.90;;;;;;5037830;28;20067;-68
2022/04/08 03:21:00;;;;;;;11.50;1.88;;;4.80;99.90;;;;;;5041315;28;20134;-68
2022/04/08 03:23:25;;;;;;;15.13;1.88;;;4.80;99.90;;;;;;5039008;28;20125;-68
2022/04/08 03:25:51;;;;;;;13.35;2.08;;;4.90;99.90;;;;;;5031665;28;20128;-68
2022/04/08 03:28:16;;;;;;;14.68;2.20;;;4.90;99.90;;;;;;5038774;28;20045;-68
2022/04/08 03:30:42;;;;;;;10.90;1.90;;;4.90;99.90;;;;;;5034549;28;20045;-69
2022/04/08 03:33:08;;;;;;;13.10;2.20;;;5.00;99.90;;;;;;5039618;28;20045;-70
2022/04/08 03:35:34;;;;;;;13.18;2.00;;;5.00;99.90;;;;;;5042011;28;20049;-69
2022/04/08 03:38:00;;;;;;;14.63;2.78;;;5.10;99.90;;;;;;5037528;28;20402;-69
2022/04/08 03:40:25;;;;;;;10.93;2.20;;;5.00;99.90;;;;;;5060639;28;20235;-69
2022/04/08 03:42:51;;;;;;;13.60;2.40;;;5.10;99.90;;;;;;5040454;28;20436;-69
2022/04/08 03:45:16;;;;;;;10.55;1.70;;;5.10;99.90;;;;;;5041989;28;21179;-68
2022/04/08 03:47:42;;;;;;;9.07;2.00;;;5.10;99.90;;;;;;5041347;28;20117;-68
2022/04/08 03:50:07;;;;;;;9.23;1.55;;;5.10;99.90;;;;;;5047632;28;20049;-69
2022/04/08 03:52:33;;;;;;;6.25;1.48;;;5.00;99.90;;;;;;5047661;28;20061;-69
2022/04/08 03:54:59;;;;;;;8.93;1.75;;;5.00;99.90;;;;;;5046821;28;20041;-69
2022/04/08 03:57:25;;;;;;;6.82;1.55;;;5.00;99.90;;;;;;5043764;28;20052;-69
2022/04/08 03:59:51;;;;;;;6.63;1.55;;;4.90;99.90;;;;;;5042263;28;20482;-69
2022/04/08 04:02:17;;;;;;;7.22;1.30;;;4.90;99.90;;;;;;5042358;28;20075;-69
2022/04/08 04:04:42;;;;;;;9.27;1.40;;;4.90;99.90;;;;;;5036806;28;20041;-70
2022/04/08 04:07:08;;;;;;;9.75;1.52;;;4.80;99.90;;;;;;5040864;28;20068;-69
2022/04/08 04:09:33;;;;;;;8.45;1.88;;;4.80;99.90;;;;;;5044534;28;20029;-69
2022/04/08 04:11:59;;;;;;;7.47;1.60;;;4.80;99.90;;;;;;5034084;28;20041;-69
2022/04/08 04:14:24;;;;;;;6.20;1.40;;;4.80;99.90;;;;;;5043202;28;20078;-69
2022/04/08 04:16:50;;;;;;;9.32;1.55;;;4.80;99.90;;;;;;5037529;28;20340;-69
2022/04/08 04:19:17;;;;;;;9.27;1.15;;;4.70;99.90;;;;;;5038323;28;20049;-69
2022/04/08 04:21:43;;;;;;;5.93;1.35;;;4.70;99.90;;;;;;5045875;28;20052;-68
2022/04/08 04:24:08;;;;;;;9.75;1.40;;;4.70;99.90;;;;;;5039758;28;20459;-69
2022/04/08 04:26:34;;;;;;;7.07;1.40;;;4.70;99.90;;;;;;5037274;28;20091;-68
2022/04/08 04:29:00;;;;;;;8.68;1.63;;;4.70;99.90;;;;;;5043514;28;20535;-68
2022/04/08 04:31:26;;;;;;;8.07;1.73;;;4.70;99.90;;;;;;5044438;28;20052;-68
2022/04/08 04:33:51;;;;;;;7.05;1.25;;;4.70;99.90;;;;;;5045886;28;20045;-68
2022/04/08 04:36:17;;;;;;;9.73;1.80;;;4.70;99.90;;;;;;5039374;28;20055;-69
2022/04/08 04:38:43;;;;;;;9.65;1.73;;;4.70;99.90;;;;;;5044589;28;20052;-68
2022/04/08 04:41:09;;;;;;;6.03;1.27;;;4.70;99.90;;;;;;5042228;28;20395;-68
2022/04/08 04:43:35;;;;;;;11.80;2.00;;;4.70;99.90;;;;;;5040551;28;20166;-69
2022/04/08 04:46:03;;;;;;;7.35;1.63;;;4.70;99.90;;;;;;5051458;28;20037;-69
2022/04/08 04:48:29;;;;;;;10.75;2.25;;;4.70;99.90;;;;;;5044506;28;20469;-69
2022/04/08 04:50:56;;;;;;;9.70;2.03;;;4.70;99.90;;;;;;5043313;28;20175;-71
2022/04/08 04:53:22;;;;;;;8.05;1.30;;;4.80;99.90;;;;;;5028880;28;20609;-69
2022/04/08 04:55:48;;;;;;;5.75;1.25;;;4.80;99.90;;;;;;5028718;28;20037;-69
2022/04/08 04:58:13;;;;;;;7.47;1.65;;;4.90;99.90;;;;;;5041689;28;20147;-68
2022/04/08 05:00:39;;;;;;;7.18;1.42;;;4.90;99.90;;;;;;5044456;28;20112;-68
2022/04/08 05:03:05;;;;;;;8.27;1.65;;;4.90;99.90;;;;;;5040810;28;20033;-68
2022/04/08 05:05:31;;;;;;;8.40;1.63;;;4.90;99.90;;;;;;5050051;28;20436;-68
2022/04/08 05:08:01;;;;;;;8.73;1.75;;;4.90;99.90;;;;;;5039246;28;20123;-69
2022/04/08 05:10:26;;;;;;;7.25;1.70;;;5.00;99.90;;;;;;5051337;28;20037;-70
2022/04/08 05:12:52;;;;;;;7.15;1.77;;;5.00;99.90;;;;;;5041388;28;20426;-70
2022/04/08 05:15:18;;;;;;;9.73;1.77;;;5.00;99.90;;;;;;5038486;28;20044;-69
2022/04/08 05:17:45;;;;;;;10.77;2.00;;;5.00;99.90;;;;;;5037870;28;20056;-69
2022/04/08 05:20:10;;;;;;;6.78;1.88;;;5.00;99.90;;;;;;5041969;28;20079;-69
2022/04/08 05:22:36;;;;;;;11.02;1.98;;;5.10;99.90;;;;;;5033538;28;20471;-69
2022/04/08 05:25:02;;;;;;;9.40;1.73;;;5.10;99.90;;;;;;5045176;28;20042;-69
2022/04/08 05:27:35;;;;;;;7.55;1.25;;;5.10;99.90;;;;;;5042097;28;20055;-67
2022/04/08 05:30:09;;;;;;;6.75;1.60;;;5.00;99.90;;;;;;5042249;28;20041;-68
2022/04/08 05:32:35;;;;;;;6.32;1.95;;;5.00;99.90;;;;;;5036863;28;20037;-68
2022/04/08 05:35:01;;;;;;;4.55;1.10;;;4.80;99.90;;;;;;5037719;28;20053;-68
2022/04/08 05:37:28;;;;;;;6.47;1.30;;;4.60;99.90;;;;;;5039493;28;20036;-66
2022/04/08 05:39:54;;;;;;;7.03;1.27;;;4.40;99.90;;;;;;5040211;28;20451;-67
2022/04/08 05:42:20;;;;;;;5.60;1.30;;;4.20;99.90;;;;;;5038726;28;20606;-66
2022/04/08 05:44:46;;;;;;;3.83;1.05;;;4.00;99.90;;;;;;5037004;28;20044;-66
2022/04/08 05:47:11;;;;;;;2.40;0.80;;;3.90;99.90;;;;;;5039025;28;20045;-66
2022/04/08 05:49:37;;;;;;;2.95;0.90;;;3.80;99.90;;;;;;5038463;28;20041;-67
2022/04/08 05:52:04;;;;;;;3.40;0.88;;;3.70;99.90;;;;;;5039905;28;20041;-66
2022/04/08 05:54:30;;;;;;;2.17;0.90;;;3.60;99.90;;;;;;5033934;28;20080;-69
2022/04/08 05:57:00;;;;;;;3.20;0.95;;;3.50;99.90;;;;;;5037525;28;20036;-66
2022/04/08 05:59:27;;;;;;;4.28;1.17;;;3.40;99.90;;;;;;5040188;28;21574;-67
2022/04/08 06:01:53;;;;;;;5.47;1.23;;;3.30;99.90;;;;;;5040587;28;20101;-66
2022/04/08 06:04:18;;;;;;;4.93;1.27;;;3.20;99.90;;;;;;5046551;28;20171;-67
2022/04/08 06:06:44;;;;;;;3.30;1.30;;;3.10;99.90;;;;;;5046737;28;20458;-69
2022/04/08 06:09:09;;;;;;;3.63;1.48;;;3.10;99.90;;;;;;5041921;28;20047;-67
2022/04/08 06:11:35;;;;;;;5.28;1.50;;;3.10;99.90;;;;;;5045957;28;20094;-67
2022/04/08 06:14:00;;;;;;;4.43;1.13;;;3.10;99.90;;;;;;5037974;28;20069;-66
2022/04/08 06:16:26;;;;;;;3.80;1.35;;;3.10;99.90;;;;;;5045645;28;20079;-67
2022/04/08 06:18:51;;;;;;;3.53;1.20;;;3.10;99.90;;;;;;5042596;28;20037;-66
2022/04/08 06:21:17;;;;;;;4.18;1.50;;;3.20;99.90;;;;;;5041161;28;20102;-67
2022/04/08 06:23:42;;;;;;;2.70;1.50;;;3.30;99.90;;;;;;5035836;28;20132;-67
2022/04/08 06:26:09;;;;;;;4.47;1.25;;;3.40;99.90;;;;;;5036639;28;20060;-66
2022/04/08 06:28:34;;;;;;;4.63;1.40;;;3.40;99.90;;;;;;5035930;28;20129;-67
2022/04/08 06:31:00;;;;;;;3.88;1.30;;;3.40;99.90;;;;;;5038398;28;20136;-66
2022/04/08 06:33:26;;;;;;;4.82;1.20;;;3.40;99.90;;;;;;5046572;28;20056;-68
2022/04/08 06:35:51;;;;;;;4.22;1.35;;;3.40;99.90;;;;;;5040898;28;20114;-66
2022/04/08 06:38:17;;;;;;;3.53;1.40;;;3.40;99.90;;;;;;5041581;28;20067;-66
2022/04/08 06:40:42;;;;;;;2.90;1.10;;;3.50;99.90;;;;;;5043289;28;21561;-66
2022/04/08 06:43:08;;;;;;;3.42;1.20;;;3.50;99.90;;;;;;5040344;28;20748;-67
2022/04/08 06:45:35;;;;;;;3.97;1.10;;;3.60;99.90;;;;;;5044119;28;20037;-67
2022/04/08 06:48:01;;;;;;;2.97;0.95;;;3.60;99.90;;;;;;5037470;28;20049;-66
2022/04/08 06:50:26;;;;;;;2.97;1.10;;;3.60;99.90;;;;;;5036092;28;20116;-67
2022/04/08 06:52:53;;;;;;;2.55;1.00;;;3.70;99.90;;;;;;5046525;28;20051;-67
2022/04/08 06:55:19;;;;;;;4.50;1.02;;;3.70;99.90;;;;;;5041738;28;20402;-67
2022/04/08 06:57:44;;;;;;;4.82;1.35;;;3.90;99.90;;;;;;5044530;28;20040;-67
2022/04/08 07:00:12;;;;;;;5.00;1.40;;;4.00;99.90;;;;;;5038043;28;20041;-67
2022/04/08 07:02:38;;;;;;;4.15;1.33;;;4.20;99.90;;;;;;5044543;28;20084;-67
2022/04/08 07:05:04;;;;;;;5.30;1.27;;;4.30;99.90;;;;;;5044390;28;20092;-68
2022/04/08 07:07:34;;;;;;;3.63;1.45;;;4.40;99.90;;;;;;5035243;28;20763;-67
2022/04/08 07:10:00;;;;;;;4.20;1.50;;;4.50;99.90;;;;;;5035596;28;20550;-67
2022/04/08 07:12:27;;;;;;;4.93;1.25;;;4.60;99.90;;;;;;5045707;28;20112;-67
2022/04/08 07:14:53;;;;;;;4.97;1.35;;;4.60;99.90;;;;;;5043342;28;20045;-68
2022/04/08 07:17:29;;;;;;;4.65;1.35;;;4.60;99.90;;;;;;5044336;28;20238;-68
2022/04/08 07:19:56;;;;;;;2.80;1.40;;;4.70;99.90;;;;;;5044374;28;20124;-67
2022/04/08 07:22:22;;;;;;;4.80;1.70;;;4.70;99.90;;;;;;5046055;28;20047;-68
2022/04/08 07:24:48;;;;;;;6.15;2.70;;;4.80;99.90;;;;;;5044175;28;20037;-68
2022/04/08 07:27:14;;;;;;;6.93;2.60;;;4.90;99.90;;;;;;5042133;28;20136;-69
2022/04/08 07:29:39;;;;;;;6.45;3.15;;;5.00;99.90;;;;;;5037162;28;20044;-68
2022/04/08 07:32:06;;;;;;;5.80;2.40;;;5.20;99.90;;;;;;5045935;28;21732;-68
2022/04/08 07:34:31;;;;;;;6.88;2.22;;;5.30;99.90;;;;;;5042000;28;20072;-68
2022/04/08 07:36:57;;;;;;;5.95;1.80;;;5.40;99.90;;;;;;5045465;28;20515;-68
2022/04/08 07:39:22;;;;;;;4.55;1.73;;;5.60;99.90;;;;;;5035094;28;20349;-68
2022/04/08 07:41:48;;;;;;;3.78;1.70;;;5.70;99.90;;;;;;5048007;28;20145;-68
2022/04/08 07:44:13;;;;;;;6.20;2.05;;;5.80;99.90;;;;;;5049488;28;20059;-67
2022/04/08 07:46:39;;;;;;;3.53;1.58;;;5.80;99.90;;;;;;5049206;28;20041;-68
2022/04/08 07:49:04;;;;;;;4.10;2.05;;;5.80;99.90;;;;;;5048912;28;20064;-68
2022/04/08 07:51:30;;;;;;;5.65;1.75;;;5.80;99.90;;;;;;5045698;28;20049;-68
2022/04/08 07:53:55;;;;;;;3.65;1.70;;;6.00;99.90;;;;;;5049495;28;20056;-67
2022/04/08 07:56:21;;;;;;;5.03;1.77;;;6.20;99.90;;;;;;5044415;28;20041;-67
2022/04/08 07:58:48;;;;;;;5.78;1.90;;;6.30;99.90;;;;;;5040824;28;20045;-68
2022/04/08 08:01:14;;;;;;;7.68;2.35;;;6.40;99.90;;;;;;5044562;28;20041;-68
2022/04/08 08:03:40;;;;;;;7.68;2.53;;;6.40;99.90;;;;;;5034484;28;20363;-68
2022/04/08 08:06:06;;;;;;;6.97;2.25;;;6.20;99.90;;;;;;5048901;28;20056;-68
2022/04/08 08:08:31;;;;;;;10.40;3.20;;;6.20;99.90;;;;;;5047264;28;20044;-68
2022/04/08 08:10:57;;;;;;;11.50;3.13;;;6.10;99.90;;;;;;5045158;28;20124;-68
2022/04/08 08:13:23;;;;;;;7.55;2.53;;;6.00;99.90;;;;;;5044246;28;20060;-68
2022/04/08 08:15:48;;;;;;;4.60;2.28;;;5.90;99.90;;;;;;5041258;28;20204;-67
2022/04/08 08:18:14;;;;;;;5.93;2.40;;;5.70;99.90;;;;;;5041745;28;20083;-68
2022/04/08 08:20:39;;;;;;;6.30;2.00;;;5.70;99.90;;;;;;5044208;28;20041;-67
2022/04/08 08:23:08;;;;;;;5.03;1.50;;;5.50;99.90;;;;;;5043726;28;20679;-68
2022/04/08 08:25:34;;;;;;;5.93;1.88;;;5.40;99.90;;;;;;5042052;28;20037;-68
2022/04/08 08:28:01;;;;;;;6.30;1.90;;;5.40;99.90;;;;;;5042516;28;20111;-67
2022/04/08 08:30:31;;;;;;;5.90;1.90;;;5.50;99.90;;;;;;5039219;28;20045;-68
2022/04/08 08:32:58;;;;;;;5.25;1.77;;;5.50;99.90;;;;;;5037909;28;20388;-68
2022/04/08 08:35:25;;;;;;;7.82;1.98;;;5.60;99.90;;;;;;5040144;28;20045;-68
2022/04/08 08:37:51;;;;;;;4.90;2.28;;;5.70;99.90;;;;;;5042557;28;20041;-68
2022/04/08 08:40:18;;;;;;;6.13;2.22;;;5.80;99.90;;;;;;5038644;28;20051;-68
2022/04/08 08:42:45;;;;;;;6.40;2.38;;;5.90;99.90;;;;;;5041700;28;20420;-68
2022/04/08 08:45:12;;;;;;;5.80;2.40;;;6.10;99.90;;;;;;5042909;28;20060;-68
2022/04/08 08:47:38;;;;;;;10.98;3.22;;;6.30;99.90;;;;;;5040949;28;20041;-68
2022/04/08 08:50:05;;;;;;;6.97;2.78;;;6.50;99.90;;;;;;5037233;28;20033;-68
2022/04/08 08:52:31;;;;;;;8.35;3.22;;;6.60;99.90;;;;;;5038105;28;20145;-68
2022/04/08 08:54:57;;;;;;;9.05;3.00;;;6.70;99.90;;;;;;5040599;28;20064;-68
2022/04/08 08:57:23;;;;;;;9.20;3.20;;;6.70;99.90;;;;;;5041424;28;21728;-68
2022/04/08 09:00:01;;;;;;;12.77;3.38;;;6.80;99.90;;;;;;5037766;28;20077;-67
2022/04/08 09:02:26;;;;;;;9.13;3.40;;;6.90;99.90;;;;;;5042743;28;20055;-67
2022/04/08 09:04:52;;;;;;;9.70;2.72;;;7.00;99.90;;;;;;5037445;28;20049;-67
2022/04/08 09:07:23;;;;;;;9.55;2.95;;;7.20;99.90;;;;;;5043817;28;20041;-67
2022/04/08 09:09:53;;;;;;;14.07;2.72;;;7.30;99.90;;;;;;5038974;28;20045;-67
2022/04/08 09:12:21;;;;;;;12.18;2.53;;;7.40;99.90;;;;;;5037065;28;20053;-68
2022/04/08 09:14:52;;;;;;;16.60;3.00;;;7.50;99.90;;;;;;5038872;28;20052;-67
2022/04/08 09:17:23;;;;;;;12.88;3.15;;;7.80;99.90;;;;;;5039451;28;20132;-69
2022/04/08 09:19:53;;;;;;;8.57;2.10;;;8.00;99.90;;;;;;5040434;28;20047;-69
2022/04/08 09:22:20;;;;;;;10.90;2.15;;;8.10;99.90;;;;;;5041563;28;20122;-69
2022/04/08 09:24:46;;;;;;;10.07;2.05;;;8.30;99.90;;;;;;5040986;28;20056;-69
2022/04/08 09:27:13;;;;;;;7.30;1.50;;;8.30;99.90;;;;;;5040819;28;20574;-69
2022/04/08 09:29:45;;;;;;;8.82;1.83;;;8.40;99.90;;;;;;5038870;28;20056;-68
2022/04/08 09:32:13;;;;;;;8.77;1.95;;;8.50;99.90;;;;;;5022954;28;20460;-68
2022/04/08 09:34:40;;;;;;;6.70;1.65;;;8.70;99.90;;;;;;5034007;28;20057;-69
2022/04/08 09:37:13;;;;;;;9.43;2.08;;;8.70;99.90;;;;;;5040961;28;20073;-68
2022/04/08 09:40:00;;;;;;;7.28;1.90;;;8.60;99.90;;;;;;5041764;28;20041;-68
2022/04/08 09:42:47;;;;;;;5.63;1.52;;;8.80;99.90;;;;;;5039675;28;20033;-67
2022/04/08 09:45:14;;;;;;;6.93;1.75;;;8.90;99.90;;;;;;5024103;28;20124;-67
2022/04/08 09:47:40;;;;;;;11.85;2.25;;;9.00;99.90;;;;;;5045651;28;20516;-68
2022/04/08 09:50:10;;;;;;;10.50;1.90;;;9.00;99.90;;;;;;5041987;28;20452;-68
2022/04/08 09:52:39;;;;;;;7.20;1.73;;;9.10;99.90;;;;;;5046919;28;20056;-67
2022/04/08 09:55:09;;;;;;;9.20;1.67;;;9.10;99.90;;;;;;5041679;28;20065;-66
2022/04/08 09:57:39;;;;;;;7.28;1.80;;;8.90;99.90;;;;;;5044510;28;20556;-67
2022/04/08 10:00:07;;;;;;;7.57;1.85;;;9.00;99.90;;;;;;5046880;28;20045;-67
2022/04/08 10:02:35;;;;;;;8.32;1.90;;;9.00;99.90;;;;;;5045305;28;20072;-66
2022/04/08 10:05:01;;;;;;;7.45;1.60;;;9.10;99.90;;;;;;5039263;28;20222;-66
2022/04/08 10:07:28;;;;;;;8.20;1.75;;;9.20;99.90;;;;;;5043152;28;20084;-68
2022/04/08 10:10:00;;;;;;;6.80;1.60;;;9.30;99.90;;;;;;5033524;28;20552;-66
2022/04/08 10:12:53;;;;;;;10.02;2.40;;;9.20;99.90;;;;;;5035779;28;20076;-67
2022/04/08 10:15:37;;;;;;;5.28;1.50;;;9.40;99.90;;;;;;5037880;28;20055;-66
2022/04/08 10:18:04;;;;;;;6.53;1.92;;;9.30;99.90;;;;;;5044956;28;20049;-67
2022/04/08 10:20:31;;;;;;;7.00;1.52;;;9.40;99.90;;;;;;5035455;28;20056;-66
2022/04/08 10:23:33;;;;;;;5.60;1.88;;;9.40;99.90;;;;;;5037258;28;20041;-67
2022/04/08 10:25:59;;;;;;;8.93;1.75;;;9.50;99.90;;;;;;5045568;28;20048;-67
2022/04/08 10:28:35;;;;;;;9.70;1.75;;;9.50;99.90;;;;;;5042018;28;20044;-67
2022/04/08 10:31:00;;;;;;;8.63;1.83;;;9.70;99.90;;;;;;5037304;28;20194;-67
2022/04/08 10:33:28;;;;;;;7.38;1.60;;;9.80;99.90;;;;;;5043049;28;20465;-67
2022/04/08 10:36:03;;;;;;;9.18;2.28;;;9.80;98.90;;;;;;5039708;28;20053;-67
2022/04/08 10:38:39;;;;;;;8.68;2.47;;;9.90;99.90;;;;;;5047006;28;20045;-68
2022/04/08 10:41:08;;;;;;;9.90;2.10;;;10.00;97.40;;;;;;5038993;28;20045;-67
2022/04/08 10:43:48;;;;;;;8.05;1.40;;;9.90;99.20;;;;;;5043791;28;20041;-68
2022/04/08 10:46:27;;;;;;;6.25;1.80;;;10.10;99.40;;;;;;5039023;28;20404;-67
2022/04/08 10:48:57;;;;;;;8.57;2.20;;;10.10;99.90;;;;;;5034660;28;20444;-67
2022/04/08 10:51:23;;;;;;;7.65;1.50;;;9.90;97.80;;;;;;5040613;28;20463;-66
2022/04/08 10:53:49;;;;;;;8.77;2.30;;;10.20;99.90;;;;;;5041781;28;20132;-67
2022/04/08 10:56:15;;;;;;;6.60;1.83;;;10.40;99.60;;;;;;5035065;28;20049;-67
2022/04/08 10:58:46;;;;;;;8.02;1.92;;;10.40;99.90;;;;;;5038999;28;20128;-67
2022/04/08 11:01:17;;;;;;;6.65;1.98;;;10.40;98.30;;;;;;5041956;28;20048;-66
2022/04/08 11:03:46;;;;;;;7.05;1.75;;;10.50;98.20;;;;;;5043203;28;20128;-68
2022/04/08 11:06:15;;;;;;;8.73;2.10;;;10.70;99.90;;;;;;5045377;28;20037;-67
2022/04/08 11:08:41;;;;;;;7.40;2.03;;;10.70;97.50;;;;;;5028137;28;20045;-67
2022/04/08 11:11:07;;;;;;;6.75;1.80;;;10.60;96.00;;;;;;5046651;28;20322;-67
2022/04/08 11:13:33;;;;;;;7.90;1.80;;;10.60;93.70;;;;;;5042139;28;20051;-67
2022/04/08 11:15:59;;;;;;;6.85;1.85;;;10.70;95.00;;;;;;5041670;28;20343;-67
2022/04/08 11:18:25;;;;;;;7.97;1.90;;;10.60;93.90;;;;;;5045288;28;20063;-67
2022/04/08 11:20:51;;;;;;;4.80;1.60;;;10.60;96.30;;;;;;5054985;28;20045;-67
2022/04/08 11:23:32;;;;;;;7.72;1.92;;;10.70;94.90;;;;;;5047880;28;20538;-67
2022/04/08 11:25:58;;;;;;;8.02;1.65;;;10.50;94.70;;;;;;5008879;28;20075;-68
2022/04/08 11:28:24;;;;;;;9.38;2.13;;;10.60;96.80;;;;;;5033022;28;20152;-68
2022/04/08 11:30:55;;;;;;;7.68;1.63;;;10.50;96.00;;;;;;5033697;28;20413;-67
2022/04/08 11:33:21;;;;;;;7.90;1.70;;;10.10;96.30;;;;;;5033657;28;20041;-68
2022/04/08 11:35:53;;;;;;;5.25;1.65;;;9.70;99.50;;;;;;5041845;28;20166;-67
2022/04/08 11:38:22;;;;;;;5.75;1.80;;;9.30;99.90;;;;;;5043347;28;20048;-68
2022/04/08 11:40:48;;;;;;;4.80;1.58;;;9.10;99.90;;;;;;5044971;28;20099;-68
2022/04/08 11:43:16;;;;;;;10.32;1.67;;;9.10;99.90;;;;;;5032551;28;20422;-66
2022/04/08 11:45:42;;;;;;;6.80;1.50;;;9.10;99.90;;;;;;5038734;28;20045;-68
2022/04/08 11:48:13;;;;;;;9.10;1.80;;;9.20;99.90;;;;;;5041683;28;20065;-68
2022/04/08 11:50:40;;;;;;;8.48;1.70;;;9.30;99.90;;;;;;5043547;28;20068;-67
2022/04/08 11:53:14;;;;;;;8.32;2.13;;;9.50;99.90;;;;;;5046212;28;20103;-67
2022/04/08 11:55:39;;;;;;;7.55;1.58;;;9.70;99.90;;;;;;5034901;28;20049;-67
2022/04/08 11:58:17;;;;;;;8.02;1.70;;;9.70;99.90;;;;;;5034984;28;20119;-68
2022/04/08 12:00:43;;;;;;;6.63;2.00;;;9.90;99.90;;;;;;5036173;28;20284;-67
2022/04/08 12:03:08;;;;;;;7.90;2.00;;;9.80;99.90;;;;;;5040448;28;20048;-68
2022/04/08 12:05:44;;;;;;;8.05;2.00;;;10.00;99.90;;;;;;5043753;28;20414;-67
2022/04/08 12:08:11;;;;;;;9.52;2.28;;;10.00;99.90;;;;;;5048160;28;20455;-68
2022/04/08 12:10:37;;;;;;;7.60;1.83;;;10.10;99.90;;;;;;5049112;28;20164;-65
2022/04/08 12:13:17;;;;;;;8.77;2.00;;;9.90;99.90;;;;;;5041410;28;20169;-68
2022/04/08 12:15:48;;;;;;;9.45;2.63;;;10.00;99.90;;;;;;5045684;28;20088;-68
2022/04/08 12:18:21;;;;;;;9.57;2.20;;;9.80;99.90;;;;;;5020400;28;20837;-68
2022/04/08 12:20:55;;;;;;;6.82;2.15;;;9.70;99.90;;;;;;5041837;28;20056;-68
2022/04/08 12:23:23;;;;;;;6.15;1.90;;;9.80;99.90;;;;;;5043178;28;20037;-68
2022/04/08 12:25:53;;;;;;;6.05;1.58;;;9.80;99.90;;;;;;5037131;28;20101;-68
2022/04/08 12:28:22;;;;;;;5.97;1.45;;;9.90;99.90;;;;;;5043870;28;20052;-68
2022/04/08 12:30:47;;;;;;;4.70;1.42;;;10.10;99.90;;;;;;5045284;28;20037;-68
2022/04/08 12:33:13;;;;;;;4.95;1.10;;;10.20;99.10;;;;;;5037636;28;20075;-68
2022/04/08 12:35:38;;;;;;;5.63;1.30;;;10.40;97.00;;;;;;5039302;28;20135;-68
2022/04/08 12:38:04;;;;;;;4.90;0.98;;;10.40;93.10;;;;;;5043245;28;20167;-67
2022/04/08 12:40:32;;;;;;;5.47;0.90;;;10.50;92.30;;;;;;5040726;28;20033;-65
2022/04/08 12:42:58;;;;;;;4.10;1.10;;;10.50;85.00;;;;;;5042607;28;20443;-67
2022/04/08 12:45:24;;;;;;;3.70;0.88;;;10.60;90.20;;;;;;5043234;28;20153;-67
2022/04/08 12:47:49;;;;;;;3.53;0.88;;;10.50;86.30;;;;;;5040539;28;20371;-67
2022/04/08 12:50:15;;;;;;;6.15;1.15;;;10.40;81.60;;;;;;5038971;28;20033;-68
2022/04/08 12:52:41;;;;;;;3.38;0.70;;;10.20;80.50;;;;;;5038055;28;20032;-68
2022/04/08 12:55:08;;;;;;;3.40;0.98;;;10.20;81.40;;;;;;5044895;28;20060;-68